Strona główna
METAR-TAF:

METAR-TAF

Lotnisko :

Northeast Philadelphia Airport

Filadelfia, Pensylwania, Stany Zjednoczone

Szerokość geograficzna: 40-04-44N, Długość geograficzna: 075-00-49W, wysokość: 36 m

Aktualna obserwacja pogody

Raport powstał 16 minut temu, godzina 09:54 UTC
Wiatr 8 kt od północno-północny zachód
Temperatura 18°C
Wilgotność 64%
Ciśnienie 1013 hPa
Widzialność: 16.1 km
bezchmurnie

METAR: KPNE 070954Z AUTO 33008KT 10SM CLR 18/11 A2991 RMK AO2 SLP126 T01830106

czas: 06:10 (10:10 UTC)

Prognoza

Raport powstał 4 godziny i 48 minut temu, godzina 05:22 UTC
Prognoza ważna od 07 godzina 06 UTC do 08 godzina 06 UTC
Wiatr 10 kt od północ
Widzialność: 10 km
bezchmurnie
Od 07 godzina 1500 UTC
Wiatr 14 kt od północny zachód w porywach dochodzący do 20 kt
Widzialność: 10 km
bezchmurnie
Od 08 godzina 0000 UTC
Wiatr 6 kt od północno-północny zachód
Widzialność: 10 km
Mało chmury na wysokości 25000 ft

TAF: KPNE 070522Z 0706/0806 36010KT P6SM SKC FM071500 32014G20KT P6SM SKC FM080000 34006KT P6SM FEW250

Obserwacja i prognoza pogody dla ponad 4000 lotnisk (raport METAR i TAF).

Dostępne stacje oznaczono żółtymi i czerwonymi punktami na mapie.

Najedź kursorem aby zobaczyć nazwę stacji.

Kliknij aby zobaczyć obserwacje i prognozy pogody.

Aby zmienić mapę: kliknij na zielony przycisk z czarnym krzyżykiem, aby powiększyć; na zielony przycisk z myślnikiem, aby pomniejszyć; na zielone strzałki, aby przejść do map sąsiednich.


METAR-TAF: